Time;durP1;ratioP1;P1;durP2;ratioP2;P2;SDS_P1;SDS_P2;PMS_P1;PMS_P2;Temp;Humidity;BMP_temperature;BMP_pressure;BME280_temperature;BME280_humidity;BME280_pressure;Samples;Min_cycle;Max_cycle;Signal;HPM_P1;HPM_P2
2022/07/09 00:01:04;;;;;;;18.45;6.82;;;17.80;99.90;;;;;;5118172;27;20058;-68
2022/07/09 00:03:29;;;;;;;14.13;5.47;;;17.80;99.90;;;;;;5117617;28;20104;-68
2022/07/09 00:05:55;;;;;;;10.02;5.88;;;17.80;99.90;;;;;;5117904;27;20516;-68
2022/07/09 00:08:21;;;;;;;14.70;7.18;;;17.80;99.90;;;;;;5117957;27;20035;-68
2022/07/09 00:10:46;;;;;;;15.30;5.72;;;17.80;99.90;;;;;;5118099;27;20038;-68
2022/07/09 00:13:12;;;;;;;16.20;5.72;;;17.80;99.90;;;;;;5117680;27;20040;-68
2022/07/09 00:15:38;;;;;;;14.82;6.00;;;17.70;99.90;;;;;;5116670;28;20337;-68
2022/07/09 00:18:04;;;;;;;15.45;6.10;;;17.70;99.90;;;;;;5116476;28;20459;-68
2022/07/09 00:20:29;;;;;;;14.82;6.35;;;17.70;99.90;;;;;;5117342;27;20043;-68
2022/07/09 00:22:55;;;;;;;12.60;6.10;;;17.70;99.90;;;;;;5117885;27;20035;-68
2022/07/09 00:25:21;;;;;;;14.93;6.05;;;17.70;99.90;;;;;;5116846;28;20050;-67
2022/07/09 00:27:46;;;;;;;19.92;6.32;;;17.70;99.90;;;;;;5117983;27;20043;-68
2022/07/09 00:30:12;;;;;;;16.67;6.32;;;17.60;99.90;;;;;;5116735;28;20046;-68
2022/07/09 00:32:39;;;;;;;10.90;5.68;;;17.60;99.90;;;;;;5117582;27;20483;-68
2022/07/09 00:35:05;;;;;;;15.85;6.50;;;17.60;99.90;;;;;;5117770;27;20065;-68
2022/07/09 00:37:30;;;;;;;19.27;7.30;;;17.60;99.90;;;;;;5116578;28;20042;-68
2022/07/09 00:39:56;;;;;;;11.05;6.15;;;17.60;99.90;;;;;;5117914;27;20036;-68
2022/07/09 00:42:21;;;;;;;11.95;6.07;;;17.60;99.90;;;;;;5117548;27;20046;-68
2022/07/09 00:44:47;;;;;;;15.93;5.82;;;17.60;99.90;;;;;;5117756;27;20593;-68
2022/07/09 00:47:13;;;;;;;13.55;5.72;;;17.60;99.90;;;;;;5116260;28;20463;-68
2022/07/09 00:49:41;;;;;;;15.07;6.13;;;17.60;99.90;;;;;;5113627;27;20065;-68
2022/07/09 00:52:09;;;;;;;13.13;5.53;;;17.60;99.90;;;;;;5114371;28;20105;-68
2022/07/09 00:54:36;;;;;;;13.70;5.70;;;17.60;99.90;;;;;;5114361;28;20504;-68
2022/07/09 00:57:04;;;;;;;15.40;6.20;;;17.60;99.90;;;;;;5115025;28;20054;-68
2022/07/09 00:59:30;;;;;;;14.18;5.30;;;17.70;99.90;;;;;;5124910;28;20054;-68
2022/07/09 01:01:56;;;;;;;14.93;5.85;;;17.70;99.90;;;;;;5139147;28;20024;-68
2022/07/09 01:04:21;;;;;;;15.55;5.82;;;17.70;99.90;;;;;;5116200;28;20053;-68
2022/07/09 01:06:47;;;;;;;10.23;5.55;;;17.70;99.90;;;;;;5114300;28;20032;-68
2022/07/09 01:09:13;;;;;;;12.30;5.50;;;17.70;99.90;;;;;;5114240;28;20096;-68
2022/07/09 01:11:39;;;;;;;17.08;5.95;;;17.60;99.90;;;;;;5114435;28;20036;-68
2022/07/09 01:14:04;;;;;;;17.60;5.90;;;17.60;99.90;;;;;;5114061;28;20035;-68
2022/07/09 01:16:31;;;;;;;14.15;5.63;;;17.60;99.90;;;;;;5114016;28;20039;-68
2022/07/09 01:18:57;;;;;;;10.93;5.60;;;17.60;99.90;;;;;;5114263;28;20044;-68
2022/07/09 01:21:23;;;;;;;18.17;6.20;;;17.50;99.90;;;;;;5114100;28;20510;-68
2022/07/09 01:23:49;;;;;;;12.75;5.25;;;17.50;99.90;;;;;;5113917;28;20082;-68
2022/07/09 01:26:15;;;;;;;12.30;5.32;;;17.50;99.90;;;;;;5114052;28;20043;-68
2022/07/09 01:28:40;;;;;;;15.75;6.10;;;17.50;99.90;;;;;;5114202;28;20478;-68
2022/07/09 01:31:06;;;;;;;16.60;6.03;;;17.50;99.90;;;;;;5113744;28;20092;-68
2022/07/09 01:33:33;;;;;;;17.58;6.22;;;17.40;99.90;;;;;;5113844;28;20455;-66
2022/07/09 01:35:59;;;;;;;9.70;5.70;;;17.40;99.90;;;;;;5113749;28;20051;-66
2022/07/09 01:38:24;;;;;;;14.27;6.63;;;17.40;99.90;;;;;;5113443;28;20031;-66
2022/07/09 01:40:50;;;;;;;18.67;7.25;;;17.40;99.90;;;;;;5113871;27;20049;-66
2022/07/09 01:43:15;;;;;;;19.10;6.68;;;17.40;99.90;;;;;;5113428;28;20078;-66
2022/07/09 01:45:41;;;;;;;11.73;6.55;;;17.40;99.90;;;;;;5112272;28;20040;-66
2022/07/09 01:48:07;;;;;;;14.68;6.63;;;17.40;99.90;;;;;;5113414;28;20050;-66
2022/07/09 01:50:32;;;;;;;18.05;6.70;;;17.40;99.90;;;;;;5113743;28;20035;-66
2022/07/09 01:52:58;;;;;;;15.70;7.20;;;17.40;99.90;;;;;;5113195;28;20054;-66
2022/07/09 01:55:23;;;;;;;18.17;6.38;;;17.40;99.90;;;;;;5113568;28;20050;-66
2022/07/09 01:57:49;;;;;;;18.02;6.65;;;17.40;99.90;;;;;;5113339;28;20090;-66
2022/07/09 02:00:14;;;;;;;15.25;6.47;;;17.40;99.90;;;;;;5113223;28;20036;-66
2022/07/09 02:02:40;;;;;;;15.10;7.60;;;17.40;99.90;;;;;;5112926;27;20036;-66
2022/07/09 02:05:06;;;;;;;19.00;6.93;;;17.40;99.90;;;;;;5113697;28;20089;-66
2022/07/09 02:07:32;;;;;;;14.57;7.82;;;17.40;99.90;;;;;;5119244;28;20074;-66
2022/07/09 02:09:58;;;;;;;14.07;7.13;;;17.40;99.90;;;;;;5138134;28;20032;-66
2022/07/09 02:12:23;;;;;;;14.10;7.13;;;17.30;99.90;;;;;;5122156;28;20067;-66
2022/07/09 02:14:49;;;;;;;17.17;7.72;;;17.30;99.90;;;;;;5113118;28;20096;-66
2022/07/09 02:17:15;;;;;;;17.75;6.95;;;17.40;99.90;;;;;;5112884;28;20410;-66
2022/07/09 02:19:40;;;;;;;12.43;7.57;;;17.30;99.90;;;;;;5111827;28;20487;-66
2022/07/09 02:22:06;;;;;;;15.38;7.65;;;17.40;99.90;;;;;;5112988;28;20043;-66
2022/07/09 02:24:32;;;;;;;21.48;8.50;;;17.40;99.90;;;;;;5112686;28;20495;-66
2022/07/09 02:26:57;;;;;;;14.68;7.90;;;17.40;99.90;;;;;;5112961;28;20044;-66
2022/07/09 02:29:23;;;;;;;17.55;8.00;;;17.40;99.90;;;;;;5112893;28;20198;-66
2022/07/09 02:31:49;;;;;;;16.90;8.18;;;17.40;99.90;;;;;;5111448;28;20043;-66
2022/07/09 02:34:14;;;;;;;14.30;8.23;;;17.30;99.90;;;;;;5112570;28;20035;-66
2022/07/09 02:36:40;;;;;;;15.30;7.93;;;17.40;99.90;;;;;;5112586;28;20036;-66
2022/07/09 02:39:05;;;;;;;12.55;7.88;;;17.40;99.90;;;;;;5111252;28;20068;-66
2022/07/09 02:41:31;;;;;;;15.27;8.00;;;17.40;99.90;;;;;;5112556;28;20042;-67
2022/07/09 02:43:56;;;;;;;17.60;8.88;;;17.40;99.90;;;;;;5112115;28;20521;-66
2022/07/09 02:46:22;;;;;;;19.20;8.45;;;17.40;99.90;;;;;;5111189;28;20031;-66
2022/07/09 02:48:47;;;;;;;19.23;9.10;;;17.30;99.90;;;;;;5112601;28;20043;-67
2022/07/09 02:51:13;;;;;;;19.52;8.55;;;17.40;99.90;;;;;;5112370;28;20058;-67
2022/07/09 02:53:39;;;;;;;12.65;7.65;;;17.40;99.90;;;;;;5112191;28;20050;-66
2022/07/09 02:56:04;;;;;;;14.82;8.15;;;17.30;99.90;;;;;;5112276;28;20476;-67
2022/07/09 02:58:31;;;;;;;13.55;7.85;;;17.30;99.90;;;;;;5112178;28;20075;-66
2022/07/09 03:00:57;;;;;;;15.18;8.13;;;17.30;99.90;;;;;;5112257;28;20032;-67
2022/07/09 03:03:23;;;;;;;9.85;7.35;;;17.30;99.90;;;;;;5110817;28;20088;-67
2022/07/09 03:05:49;;;;;;;11.77;7.20;;;17.30;99.90;;;;;;5112512;28;20075;-67
2022/07/09 03:08:14;;;;;;;10.55;7.10;;;17.30;99.90;;;;;;5112273;28;20118;-67
2022/07/09 03:10:40;;;;;;;13.98;7.70;;;17.30;99.90;;;;;;5112196;28;20063;-67
2022/07/09 03:13:06;;;;;;;10.15;6.82;;;17.30;99.90;;;;;;5093393;28;20039;-67
2022/07/09 03:15:31;;;;;;;13.38;6.80;;;17.30;99.90;;;;;;5112943;28;20071;-67
2022/07/09 03:17:57;;;;;;;11.90;7.63;;;17.30;99.90;;;;;;5136792;28;20102;-68
2022/07/09 03:20:23;;;;;;;14.98;7.55;;;17.30;99.90;;;;;;5124451;28;20444;-67
2022/07/09 03:22:48;;;;;;;13.00;7.38;;;17.30;99.90;;;;;;5112396;28;20035;-67
2022/07/09 03:25:14;;;;;;;13.55;6.50;;;17.30;99.90;;;;;;5112206;28;20040;-67
2022/07/09 03:27:39;;;;;;;15.15;8.02;;;17.30;99.90;;;;;;5110761;28;20036;-67
2022/07/09 03:30:05;;;;;;;13.52;7.60;;;17.30;99.90;;;;;;5111751;28;20400;-67
2022/07/09 03:32:31;;;;;;;12.13;7.10;;;17.30;99.90;;;;;;5111048;28;20082;-68
2022/07/09 03:34:56;;;;;;;15.50;7.28;;;17.30;99.90;;;;;;5109391;28;20115;-67
2022/07/09 03:37:22;;;;;;;17.90;7.57;;;17.30;99.90;;;;;;5110561;28;20070;-67
2022/07/09 03:39:48;;;;;;;16.25;7.97;;;17.30;99.90;;;;;;5111802;28;20071;-67
2022/07/09 03:42:14;;;;;;;13.63;7.90;;;17.30;99.90;;;;;;5110525;28;20669;-67
2022/07/09 03:44:39;;;;;;;13.38;6.93;;;17.30;99.90;;;;;;5110443;28;20047;-67
2022/07/09 03:47:06;;;;;;;16.35;7.82;;;17.30;99.90;;;;;;5111568;28;20635;-67
2022/07/09 03:49:33;;;;;;;11.52;7.00;;;17.30;99.90;;;;;;5111810;28;20044;-67
2022/07/09 03:51:59;;;;;;;12.10;7.53;;;17.40;99.90;;;;;;5111778;28;20123;-67
2022/07/09 03:54:24;;;;;;;15.07;7.93;;;17.30;99.90;;;;;;5111252;28;20039;-67
2022/07/09 03:56:50;;;;;;;14.48;8.18;;;17.30;99.90;;;;;;5111289;28;20394;-67
2022/07/09 03:59:16;;;;;;;14.10;8.00;;;17.30;99.90;;;;;;5111588;28;20038;-67
2022/07/09 04:01:42;;;;;;;16.30;7.95;;;17.30;99.90;;;;;;5111485;28;20078;-67
2022/07/09 04:04:07;;;;;;;13.25;7.93;;;17.30;99.90;;;;;;5111603;28;20096;-67
2022/07/09 04:06:33;;;;;;;15.32;7.72;;;17.30;99.90;;;;;;5111633;28;20164;-67
2022/07/09 04:09:03;;;;;;;17.40;8.50;;;17.30;99.90;;;;;;5111825;28;20035;-68
2022/07/09 04:11:32;;;;;;;13.75;7.70;;;17.30;99.90;;;;;;5110086;28;20448;-67
2022/07/09 04:13:59;;;;;;;19.52;7.80;;;17.20;99.90;;;;;;5111510;28;20093;-67
2022/07/09 04:16:25;;;;;;;16.77;8.07;;;17.20;99.90;;;;;;5110787;28;20088;-67
2022/07/09 04:18:51;;;;;;;15.07;8.50;;;17.30;99.90;;;;;;5112038;28;20122;-67
2022/07/09 04:21:16;;;;;;;18.33;8.25;;;17.30;99.90;;;;;;5111779;28;20499;-67
2022/07/09 04:23:42;;;;;;;12.65;7.85;;;17.30;99.90;;;;;;5124009;28;20023;-67
2022/07/09 04:26:08;;;;;;;14.25;8.05;;;17.30;99.90;;;;;;5120584;28;20154;-67
2022/07/09 04:28:36;;;;;;;14.43;8.35;;;17.30;99.90;;;;;;5124763;28;20467;-67
2022/07/09 04:31:01;;;;;;;14.75;8.52;;;17.30;99.90;;;;;;5114239;28;20046;-67
2022/07/09 04:33:27;;;;;;;16.55;8.30;;;17.20;99.90;;;;;;5115121;28;20051;-67
2022/07/09 04:35:53;;;;;;;15.77;8.02;;;17.30;99.90;;;;;;5115400;28;20035;-67
2022/07/09 04:38:18;;;;;;;18.80;8.35;;;17.30;99.90;;;;;;5115254;27;20032;-67
2022/07/09 04:40:44;;;;;;;14.13;7.93;;;17.30;99.90;;;;;;5115026;28;20063;-67
2022/07/09 04:43:09;;;;;;;15.25;7.93;;;17.40;99.90;;;;;;5115029;28;20039;-66
2022/07/09 04:45:35;;;;;;;13.85;8.43;;;17.30;99.90;;;;;;5114888;28;20042;-67
2022/07/09 04:48:01;;;;;;;13.88;7.97;;;17.30;99.90;;;;;;5114871;28;20035;-67
2022/07/09 04:50:27;;;;;;;14.90;8.57;;;17.30;99.90;;;;;;5114730;28;20032;-67
2022/07/09 04:52:53;;;;;;;11.40;8.00;;;17.30;99.90;;;;;;5114579;28;20105;-67
2022/07/09 04:55:19;;;;;;;16.80;8.27;;;17.30;99.90;;;;;;5114698;28;20055;-67
2022/07/09 04:57:45;;;;;;;14.07;8.50;;;17.30;99.90;;;;;;5115142;28;20122;-67
2022/07/09 05:00:11;;;;;;;14.88;8.57;;;17.30;99.90;;;;;;5113600;28;20381;-67
2022/07/09 05:02:37;;;;;;;17.17;8.63;;;17.40;99.90;;;;;;5114618;28;20035;-67
2022/07/09 05:05:06;;;;;;;15.57;8.05;;;17.40;99.90;;;;;;5114729;28;20043;-67
2022/07/09 05:07:32;;;;;;;13.75;8.82;;;17.40;99.90;;;;;;5114710;27;20123;-67
2022/07/09 05:09:57;;;;;;;13.07;7.95;;;17.50;99.90;;;;;;5114427;28;20031;-67
2022/07/09 05:12:23;;;;;;;14.25;8.13;;;17.60;99.90;;;;;;5113130;28;20139;-67
2022/07/09 05:14:49;;;;;;;11.88;8.10;;;17.70;99.90;;;;;;5114281;28;20067;-67
2022/07/09 05:17:14;;;;;;;16.23;8.48;;;17.80;99.90;;;;;;5114266;28;20039;-67
2022/07/09 05:19:40;;;;;;;11.70;7.47;;;17.80;99.90;;;;;;5112908;28;20507;-67
2022/07/09 05:22:05;;;;;;;16.60;7.88;;;17.90;99.90;;;;;;5114127;28;20576;-67
2022/07/09 05:24:32;;;;;;;15.27;8.15;;;17.90;99.90;;;;;;5114063;28;20143;-67
2022/07/09 05:26:57;;;;;;;13.77;7.95;;;17.90;99.90;;;;;;5113917;28;20149;-67
2022/07/09 05:29:24;;;;;;;11.65;6.80;;;17.90;99.90;;;;;;5114101;28;20062;-67
2022/07/09 05:31:50;;;;;;;18.15;7.20;;;17.90;99.90;;;;;;5113334;28;20047;-67
2022/07/09 05:34:16;;;;;;;13.07;6.85;;;17.90;99.90;;;;;;5127430;28;20036;-67
2022/07/09 05:36:42;;;;;;;13.10;6.95;;;17.90;99.90;;;;;;5134870;28;20035;-67
2022/07/09 05:39:08;;;;;;;13.15;6.88;;;17.90;99.90;;;;;;5113277;28;20539;-67
2022/07/09 05:41:33;;;;;;;12.88;6.55;;;18.00;99.90;;;;;;5114527;28;20077;-67
2022/07/09 05:43:59;;;;;;;14.40;6.47;;;18.00;99.90;;;;;;5113931;28;20028;-67
2022/07/09 05:46:25;;;;;;;14.05;5.63;;;18.00;99.90;;;;;;5113862;28;20410;-67
2022/07/09 05:48:50;;;;;;;12.05;5.85;;;18.00;99.90;;;;;;5112606;28;20038;-67
2022/07/09 05:51:16;;;;;;;14.18;6.13;;;18.20;99.90;;;;;;5113786;28;20042;-67
2022/07/09 05:53:42;;;;;;;11.48;6.18;;;18.30;99.90;;;;;;5113534;28;20036;-67
2022/07/09 05:56:08;;;;;;;12.27;5.53;;;18.30;99.90;;;;;;5113769;28;20042;-67
2022/07/09 05:58:33;;;;;;;12.90;5.85;;;18.30;99.90;;;;;;5113933;28;20038;-67
2022/07/09 06:00:59;;;;;;;13.50;5.32;;;18.40;99.90;;;;;;5113725;28;20039;-67
2022/07/09 06:03:24;;;;;;;12.30;5.97;;;18.50;99.90;;;;;;5113178;28;20040;-67
2022/07/09 06:05:50;;;;;;;13.27;5.53;;;18.50;99.90;;;;;;5113477;28;20114;-67
2022/07/09 06:08:15;;;;;;;10.40;6.10;;;18.50;99.90;;;;;;5113349;28;20036;-67
2022/07/09 06:10:41;;;;;;;8.05;5.20;;;18.50;99.90;;;;;;5113657;28;20043;-67
2022/07/09 06:13:08;;;;;;;7.28;4.88;;;18.50;99.90;;;;;;5113182;28;20042;-67
2022/07/09 06:15:33;;;;;;;9.93;4.40;;;18.60;99.90;;;;;;5095126;28;20423;-66
2022/07/09 06:17:59;;;;;;;11.85;5.10;;;18.60;99.90;;;;;;5113531;28;20032;-67
2022/07/09 06:20:24;;;;;;;11.52;5.20;;;18.60;99.90;;;;;;5113136;28;20036;-67
2022/07/09 06:22:50;;;;;;;8.10;4.60;;;18.60;99.90;;;;;;5112841;28;20119;-67
2022/07/09 06:25:15;;;;;;;9.32;4.63;;;18.60;99.90;;;;;;5113238;28;20050;-66
2022/07/09 06:27:42;;;;;;;7.72;4.70;;;18.60;99.90;;;;;;5111902;28;20093;-67
2022/07/09 06:30:08;;;;;;;7.45;4.28;;;18.70;99.90;;;;;;5112942;28;20557;-67
2022/07/09 06:32:34;;;;;;;10.50;3.90;;;18.70;99.90;;;;;;5112372;28;20040;-67
2022/07/09 06:35:00;;;;;;;8.52;3.70;;;18.80;99.90;;;;;;5112879;28;20034;-67
2022/07/09 06:37:25;;;;;;;7.18;4.20;;;18.80;99.90;;;;;;5112677;28;20046;-67
2022/07/09 06:39:55;;;;;;;8.60;3.80;;;18.80;99.90;;;;;;5113095;28;20431;-67
2022/07/09 06:42:21;;;;;;;7.15;3.67;;;18.80;99.90;;;;;;5112862;28;20040;-67
2022/07/09 06:44:47;;;;;;;5.78;3.25;;;18.80;99.90;;;;;;5119397;28;20087;-66
2022/07/09 06:47:13;;;;;;;6.18;3.33;;;18.80;99.90;;;;;;5135467;28;20065;-67
2022/07/09 06:49:39;;;;;;;7.65;3.28;;;18.80;99.90;;;;;;5124295;28;20043;-67
2022/07/09 06:52:05;;;;;;;6.60;3.88;;;18.90;99.90;;;;;;5112609;28;20041;-67
2022/07/09 06:54:31;;;;;;;10.25;3.80;;;18.80;99.90;;;;;;5111163;28;20075;-67
2022/07/09 06:56:56;;;;;;;8.07;3.47;;;18.80;99.90;;;;;;5112508;28;20035;-67
2022/07/09 06:59:23;;;;;;;6.07;3.38;;;18.90;99.90;;;;;;5112705;28;20476;-67
2022/07/09 07:01:49;;;;;;;5.72;3.90;;;18.90;99.90;;;;;;5112283;28;20047;-67
2022/07/09 07:04:15;;;;;;;8.88;3.85;;;18.80;99.90;;;;;;5110565;28;20039;-67
2022/07/09 07:06:41;;;;;;;5.90;3.80;;;18.90;99.90;;;;;;5110600;28;20039;-67
2022/07/09 07:09:07;;;;;;;7.85;3.38;;;18.90;99.90;;;;;;5112411;28;20415;-67
2022/07/09 07:11:33;;;;;;;5.90;3.17;;;19.00;99.90;;;;;;5110931;28;20039;-67
2022/07/09 07:13:58;;;;;;;8.27;3.38;;;18.90;99.90;;;;;;5111925;28;20043;-66
2022/07/09 07:16:24;;;;;;;9.50;3.65;;;19.00;99.90;;;;;;5111770;28;20118;-66
2022/07/09 07:18:49;;;;;;;6.50;3.28;;;19.00;99.90;;;;;;5111933;28;20028;-67
2022/07/09 07:21:15;;;;;;;5.90;3.38;;;19.00;99.90;;;;;;5111521;28;20556;-67
2022/07/09 07:23:40;;;;;;;7.88;3.20;;;19.10;99.90;;;;;;5110738;28;20063;-68
2022/07/09 07:26:06;;;;;;;5.45;3.20;;;19.10;99.90;;;;;;5111652;28;20039;-68
2022/07/09 07:28:32;;;;;;;4.18;3.10;;;19.20;99.90;;;;;;5112037;28;20093;-67
2022/07/09 07:30:57;;;;;;;5.38;2.70;;;19.20;99.90;;;;;;5111879;28;20040;-68
2022/07/09 07:33:23;;;;;;;5.38;2.35;;;19.20;99.90;;;;;;5111502;28;20078;-69
2022/07/09 07:35:48;;;;;;;5.50;2.83;;;19.20;99.90;;;;;;5093622;28;20040;-68
2022/07/09 07:38:14;;;;;;;5.60;2.42;;;19.30;99.90;;;;;;5112242;28;20047;-68
2022/07/09 07:40:40;;;;;;;3.50;2.20;;;19.30;99.90;;;;;;5111144;28;20040;-69
2022/07/09 07:43:05;;;;;;;5.68;2.70;;;19.30;99.90;;;;;;5112410;28;20097;-69
2022/07/09 07:45:32;;;;;;;6.80;2.92;;;19.30;99.90;;;;;;5110929;28;20046;-69
2022/07/09 07:47:57;;;;;;;4.35;2.63;;;19.30;99.90;;;;;;5111762;28;20123;-70
2022/07/09 07:50:23;;;;;;;4.82;2.80;;;19.30;99.90;;;;;;5100829;28;20031;-69
2022/07/09 07:52:49;;;;;;;8.32;2.92;;;19.30;99.90;;;;;;5118887;28;20051;-70
2022/07/09 07:55:15;;;;;;;5.90;2.90;;;19.40;99.90;;;;;;5119426;28;20039;-69
2022/07/09 07:57:41;;;;;;;7.80;2.95;;;19.40;99.90;;;;;;5114068;28;20031;-69
2022/07/09 08:00:07;;;;;;;7.93;2.85;;;19.50;99.90;;;;;;5098608;28;20051;-69
2022/07/09 08:02:34;;;;;;;8.15;3.00;;;19.40;99.90;;;;;;5115037;28;20515;-69
2022/07/09 08:05:00;;;;;;;6.00;3.20;;;19.40;99.90;;;;;;5114401;28;20040;-70
2022/07/09 08:07:26;;;;;;;5.35;3.00;;;19.40;99.90;;;;;;5114769;28;20443;-69
2022/07/09 08:09:52;;;;;;;5.03;2.88;;;19.50;99.90;;;;;;5116375;28;20511;-70
2022/07/09 08:12:18;;;;;;;4.32;2.75;;;19.40;99.90;;;;;;5115338;28;20035;-70
2022/07/09 08:14:44;;;;;;;7.35;2.50;;;19.50;99.90;;;;;;5116562;28;20050;-69
2022/07/09 08:17:09;;;;;;;4.07;2.50;;;19.50;99.90;;;;;;5097508;28;20511;-70
2022/07/09 08:19:35;;;;;;;7.55;2.80;;;19.50;99.90;;;;;;5115509;28;20032;-70
2022/07/09 08:22:00;;;;;;;7.28;2.67;;;19.70;99.90;;;;;;5115577;28;20035;-70
2022/07/09 08:24:27;;;;;;;7.40;2.78;;;19.60;99.90;;;;;;5115472;28;20048;-70
2022/07/09 08:26:52;;;;;;;7.68;2.80;;;19.50;99.90;;;;;;5115542;28;20079;-69
2022/07/09 08:29:18;;;;;;;4.68;2.53;;;19.40;99.90;;;;;;5115579;28;20075;-70
2022/07/09 08:31:44;;;;;;;7.03;2.60;;;19.40;99.90;;;;;;5115372;28;20044;-71
2022/07/09 08:34:09;;;;;;;5.43;2.40;;;19.30;99.90;;;;;;5113635;28;20036;-70
2022/07/09 08:36:35;;;;;;;5.53;2.45;;;19.40;99.90;;;;;;5115202;28;20106;-72
2022/07/09 08:39:00;;;;;;;9.02;2.70;;;19.40;99.90;;;;;;5115157;28;20035;-71
2022/07/09 08:41:26;;;;;;;5.35;2.50;;;19.50;99.90;;;;;;5115012;28;20035;-71
2022/07/09 08:43:52;;;;;;;2.75;1.80;;;19.50;99.90;;;;;;5113576;28;20043;-72
2022/07/09 08:46:18;;;;;;;7.78;2.13;;;19.80;99.90;;;;;;5114067;28;20453;-71
2022/07/09 08:48:45;;;;;;;3.83;2.00;;;19.70;99.90;;;;;;5113800;28;20048;-71
2022/07/09 08:51:11;;;;;;;5.82;2.10;;;20.00;99.90;;;;;;5113972;28;20043;-70
2022/07/09 08:53:42;;;;;;;6.70;1.80;;;19.90;99.90;;;;;;5113151;28;20039;-70
2022/07/09 08:56:08;;;;;;;4.22;2.17;;;20.00;99.90;;;;;;5115137;28;20040;-70
2022/07/09 08:58:34;;;;;;;4.18;2.10;;;19.90;99.90;;;;;;5120173;28;20039;-70
2022/07/09 09:01:00;;;;;;;5.38;2.33;;;20.10;99.90;;;;;;5133193;28;20050;-71
2022/07/09 09:03:26;;;;;;;6.10;2.40;;;20.10;99.90;;;;;;5119649;28;20050;-70
2022/07/09 09:06:11;;;;;;;6.05;2.28;;;20.10;99.90;;;;;;5113506;28;20403;-70
2022/07/09 09:08:45;;;;;;;2.63;1.80;;;19.90;99.90;;;;;;5114626;28;20035;-70
2022/07/09 09:11:22;;;;;;;3.25;1.80;;;20.00;99.90;;;;;;5113019;28;20093;-70
2022/07/09 09:13:49;;;;;;;3.22;1.75;;;20.10;99.90;;;;;;5114171;27;20032;-70
2022/07/09 09:16:16;;;;;;;3.97;1.95;;;20.10;99.90;;;;;;5114241;28;20372;-70
2022/07/09 09:18:50;;;;;;;4.80;1.88;;;20.20;99.90;;;;;;5113165;28;20038;-70
2022/07/09 09:21:20;;;;;;;4.15;2.15;;;20.20;99.90;;;;;;5114224;28;20403;-70
2022/07/09 09:23:47;;;;;;;5.57;1.70;;;20.30;99.90;;;;;;5114080;28;20180;-70
2022/07/09 09:26:24;;;;;;;3.95;1.92;;;20.30;99.90;;;;;;5113013;28;20062;-70
2022/07/09 09:29:02;;;;;;;6.10;1.55;;;20.30;99.90;;;;;;5114296;27;20050;-70
2022/07/09 09:31:31;;;;;;;5.40;1.83;;;20.50;99.90;;;;;;5114153;28;20579;-70
2022/07/09 09:34:13;;;;;;;2.28;1.45;;;20.40;99.90;;;;;;5118700;28;20035;-70
2022/07/09 09:36:56;;;;;;;4.75;1.73;;;20.50;99.90;;;;;;5115952;28;20035;-70
2022/07/09 09:39:24;;;;;;;2.72;1.50;;;20.70;99.90;;;;;;5111822;28;20032;-70
2022/07/09 09:41:54;;;;;;;3.58;1.88;;;20.60;99.90;;;;;;5111601;28;20665;-71
2022/07/09 09:44:26;;;;;;;3.53;1.83;;;20.80;99.90;;;;;;5112828;28;20043;-71
2022/07/09 09:46:56;;;;;;;3.28;1.55;;;20.60;99.90;;;;;;5111500;28;20048;-71
2022/07/09 09:49:27;;;;;;;3.75;1.55;;;20.50;99.90;;;;;;5111246;28;20046;-71
2022/07/09 09:52:03;;;;;;;5.60;1.65;;;20.50;99.90;;;;;;5112948;28;20039;-72
2022/07/09 09:54:31;;;;;;;4.15;1.65;;;20.60;99.90;;;;;;5111034;28;20518;-70
2022/07/09 09:56:58;;;;;;;2.47;1.80;;;20.40;99.90;;;;;;5111185;28;20044;-71
2022/07/09 09:59:24;;;;;;;3.22;1.63;;;20.50;99.90;;;;;;5111663;28;20114;-71
2022/07/09 10:01:50;;;;;;;3.83;1.52;;;20.60;99.90;;;;;;5094713;28;20458;-71
2022/07/09 10:04:16;;;;;;;3.38;1.58;;;20.60;99.90;;;;;;5111762;28;20032;-71
2022/07/09 10:06:43;;;;;;;3.95;1.45;;;20.60;99.90;;;;;;5115900;28;20035;-72
2022/07/09 10:09:11;;;;;;;3.75;1.23;;;20.40;99.90;;;;;;5131225;28;20128;-71
2022/07/09 10:11:45;;;;;;;3.22;1.38;;;20.40;99.90;;;;;;5116588;28;20414;-72
2022/07/09 10:14:23;;;;;;;2.65;1.35;;;20.50;99.90;;;;;;5110977;28;20035;-72
2022/07/09 10:16:49;;;;;;;1.73;1.23;;;20.60;99.90;;;;;;5110878;28;20039;-72
2022/07/09 10:19:24;;;;;;;2.75;1.40;;;20.80;99.90;;;;;;5110956;28;20043;-72
2022/07/09 10:22:01;;;;;;;2.65;0.95;;;21.10;99.90;;;;;;5093875;28;20365;-71
2022/07/09 10:24:32;;;;;;;4.65;1.20;;;21.00;99.90;;;;;;5111997;28;20046;-71
2022/07/09 10:27:09;;;;;;;2.20;1.37;;;21.30;99.90;;;;;;5110786;28;20046;-71
2022/07/09 10:29:51;;;;;;;2.85;1.30;;;21.30;99.90;;;;;;5110522;28;20499;-72
2022/07/09 10:32:30;;;;;;;4.22;1.38;;;21.30;99.90;;;;;;5111864;28;20082;-71
2022/07/09 10:34:58;;;;;;;5.70;1.55;;;21.20;99.90;;;;;;5110860;28;20032;-72
2022/07/09 10:37:32;;;;;;;4.00;1.20;;;21.30;99.90;;;;;;5110488;28;20039;-72
2022/07/09 10:40:11;;;;;;;5.85;1.23;;;21.20;99.90;;;;;;5110376;28;20040;-72
2022/07/09 10:42:38;;;;;;;3.80;1.42;;;21.10;99.90;;;;;;5110419;28;20047;-72
2022/07/09 10:45:19;;;;;;;5.68;1.20;;;21.00;99.90;;;;;;5110425;28;20035;-72
2022/07/09 10:47:49;;;;;;;5.43;1.30;;;21.10;99.90;;;;;;5112335;28;20040;-72
2022/07/09 10:50:15;;;;;;;2.45;1.35;;;21.10;99.90;;;;;;5112556;28;20047;-72
2022/07/09 10:52:41;;;;;;;1.92;1.15;;;21.50;99.90;;;;;;5124902;28;20051;-72
2022/07/09 10:55:07;;;;;;;3.88;1.08;;;22.00;99.90;;;;;;5122846;28;20109;-72
2022/07/09 10:57:35;;;;;;;2.80;0.98;;;22.20;99.90;;;;;;5110690;28;20047;-72
2022/07/09 11:00:00;;;;;;;2.40;0.95;;;22.30;99.90;;;;;;5110133;28;20133;-72
2022/07/09 11:02:26;;;;;;;2.00;1.00;;;22.30;99.90;;;;;;5109924;28;20125;-73
2022/07/09 11:04:52;;;;;;;3.78;1.38;;;22.30;99.90;;;;;;5111515;28;20032;-72
2022/07/09 11:07:24;;;;;;;4.60;1.17;;;22.30;99.90;;;;;;5110011;28;20050;-72
2022/07/09 11:09:51;;;;;;;5.03;1.55;;;22.30;99.90;;;;;;5110405;28;20043;-70
2022/07/09 11:12:18;;;;;;;7.25;1.20;;;22.30;99.90;;;;;;5109961;28;20483;-71
2022/07/09 11:14:48;;;;;;;6.05;1.05;;;22.10;99.90;;;;;;5112558;28;20055;-71
2022/07/09 11:17:22;;;;;;;6.50;1.25;;;22.20;99.90;;;;;;5128553;28;20047;-71
2022/07/09 11:19:48;;;;;;;8.65;1.50;;;22.00;99.90;;;;;;5119344;28;20053;-71
2022/07/09 11:22:18;;;;;;;4.00;1.27;;;22.10;99.90;;;;;;5110050;28;20040;-71
2022/07/09 11:24:43;;;;;;;3.17;1.13;;;22.10;99.90;;;;;;5110450;28;20134;-71
2022/07/09 11:27:09;;;;;;;3.25;1.27;;;22.40;99.90;;;;;;5111407;28;20131;-71
2022/07/09 11:29:36;;;;;;;4.45;1.20;;;22.50;99.90;;;;;;5109902;28;20047;-71
2022/07/09 11:32:02;;;;;;;5.47;1.40;;;22.60;99.90;;;;;;5109917;28;20040;-71
2022/07/09 11:34:31;;;;;;;6.57;1.30;;;22.80;99.90;;;;;;5098459;28;20101;-71
2022/07/09 11:36:58;;;;;;;3.90;1.17;;;22.80;99.90;;;;;;5060772;28;20159;-71
2022/07/09 11:39:33;;;;;;;4.93;1.10;;;22.70;99.90;;;;;;5075246;28;20115;-71
2022/07/09 11:42:01;;;;;;;1.67;1.00;;;22.80;99.90;;;;;;5079061;28;20041;-71
2022/07/09 11:44:27;;;;;;;5.40;0.95;;;22.80;99.90;;;;;;5080397;28;20035;-70
2022/07/09 11:47:02;;;;;;;2.95;0.88;;;23.00;99.90;;;;;;5079776;28;20456;-71
2022/07/09 11:49:34;;;;;;;2.97;1.10;;;23.00;99.90;;;;;;5093397;28;20048;-71
2022/07/09 11:52:01;;;;;;;5.75;1.35;;;23.10;99.90;;;;;;5061783;28;20051;-71
2022/07/09 11:54:28;;;;;;;8.55;1.52;;;22.80;99.90;;;;;;5081621;28;20399;-70
2022/07/09 11:56:53;;;;;;;10.77;1.80;;;22.50;99.90;;;;;;5074490;28;20553;-70
2022/07/09 11:59:31;;;;;;;8.35;1.75;;;22.50;99.90;;;;;;5070671;28;20036;-70
2022/07/09 12:01:58;;;;;;;6.75;1.42;;;22.70;99.90;;;;;;5068893;28;20036;-70
2022/07/09 12:04:23;;;;;;;11.45;1.70;;;22.60;99.90;;;;;;5068488;28;20119;-70
2022/07/09 12:06:52;;;;;;;4.50;2.00;;;22.70;99.90;;;;;;5068964;28;20116;-71
2022/07/09 12:09:31;;;;;;;8.65;1.73;;;22.60;99.90;;;;;;5069048;28;20044;-70
2022/07/09 12:11:57;;;;;;;10.73;2.42;;;22.20;99.90;;;;;;5072496;28;20083;-70
2022/07/09 12:14:23;;;;;;;5.95;1.40;;;22.20;99.90;;;;;;5057300;28;20124;-70
2022/07/09 12:16:48;;;;;;;8.38;1.50;;;22.00;99.90;;;;;;5068891;28;20104;-71
2022/07/09 12:19:14;;;;;;;3.78;1.50;;;22.20;99.90;;;;;;5052413;28;20037;-70
2022/07/09 12:21:39;;;;;;;3.55;1.20;;;22.10;99.90;;;;;;5069590;28;20056;-72
2022/07/09 12:24:05;;;;;;;4.82;1.50;;;22.20;99.90;;;;;;5075057;28;20089;-72
2022/07/09 12:26:30;;;;;;;5.30;1.50;;;22.20;99.90;;;;;;5072579;28;20040;-72
2022/07/09 12:28:56;;;;;;;6.40;1.63;;;22.30;99.90;;;;;;5070527;28;20040;-72
2022/07/09 12:31:22;;;;;;;7.95;1.90;;;22.30;99.90;;;;;;5069228;28;20436;-72
2022/07/09 12:33:48;;;;;;;5.63;1.77;;;22.40;99.90;;;;;;5051568;28;20086;-72
2022/07/09 12:36:16;;;;;;;3.67;1.40;;;22.50;99.90;;;;;;5068975;28;20072;-70
2022/07/09 12:38:42;;;;;;;4.22;1.25;;;22.50;99.90;;;;;;5068702;28;20543;-71